LNDAL ZZZZ-ENGM
Flight info
| Callsign | LNDAL |
|---|---|
| Flight time | N/A |
| Altitude | 2500 |
| Route | |
| Aircraft | DA40 |
Departure
| Time | N/A |
|---|---|
| Airport | ZZZZ |
Arrival
| Time | 2026-05-04 20:09 |
|---|---|
| Airport | Oslo-Gardermoen International Airport (ENGM) |
| Time | Latitude | Longitude | Altitude | Speed | Heading |
|---|---|---|---|---|---|
| 2026-05-04 19:43 | 60.04962 | 10.95240 | 1996 ft | 134 kts | 346° |
| 2026-05-04 19:44 | 60.05907 | 10.95151 | 1978 ft | 135 kts | 347° |
| 2026-05-04 19:44 | 60.06818 | 10.95003 | 1986 ft | 130 kts | 347° |
| 2026-05-04 19:44 | 60.07699 | 10.94882 | 1982 ft | 124 kts | 347° |
| 2026-05-04 19:44 | 60.08557 | 10.94752 | 1994 ft | 125 kts | 346° |
| 2026-05-04 19:45 | 60.09438 | 10.94617 | 1999 ft | 128 kts | 347° |
| 2026-05-04 19:45 | 60.10352 | 10.94604 | 1999 ft | 138 kts | 0° |
| 2026-05-04 19:45 | 60.11301 | 10.95187 | 2000 ft | 149 kts | 15° |
| 2026-05-04 19:45 | 60.12239 | 10.96109 | 1997 ft | 149 kts | 17° |
| 2026-05-04 19:46 | 60.13132 | 10.97014 | 1997 ft | 140 kts | 17° |
| 2026-05-04 19:46 | 60.13983 | 10.97866 | 2001 ft | 138 kts | 17° |
| 2026-05-04 19:46 | 60.14843 | 10.98664 | 1986 ft | 134 kts | 15° |
| 2026-05-04 19:46 | 60.15659 | 10.99460 | 1996 ft | 127 kts | 14° |
| 2026-05-04 19:47 | 60.16453 | 11.00260 | 2002 ft | 128 kts | 17° |
| 2026-05-04 19:47 | 60.17245 | 11.01109 | 2010 ft | 130 kts | 17° |
| 2026-05-04 19:47 | 60.18064 | 11.01925 | 2001 ft | 133 kts | 17° |
| 2026-05-04 19:47 | 60.18901 | 11.02742 | 2006 ft | 134 kts | 17° |
| 2026-05-04 19:48 | 60.19741 | 11.03566 | 2006 ft | 135 kts | 17° |
| 2026-05-04 19:48 | 60.20600 | 11.04413 | 1896 ft | 141 kts | 16° |
| 2026-05-04 19:48 | 60.21495 | 11.05306 | 1763 ft | 145 kts | 16° |
| 2026-05-04 19:48 | 60.22387 | 11.06188 | 1626 ft | 141 kts | 18° |
| 2026-05-04 19:49 | 60.23270 | 11.06988 | 1493 ft | 142 kts | 18° |
| 2026-05-04 19:49 | 60.24132 | 11.07855 | 1395 ft | 136 kts | 21° |
| 2026-05-04 19:49 | 60.24725 | 11.09228 | 1228 ft | 147 kts | 87° |
| 2026-05-04 19:49 | 60.24304 | 11.10761 | 1164 ft | 115 kts | 184° |
| 2026-05-04 19:50 | 60.23552 | 11.10299 | 1015 ft | 118 kts | 199° |
| 2026-05-04 19:50 | 60.22729 | 11.09816 | 894 ft | 126 kts | 200° |
| 2026-05-04 19:50 | 60.21908 | 11.09354 | 789 ft | 119 kts | 201° |
| 2026-05-04 19:50 | 60.21164 | 11.08915 | 696 ft | 104 kts | 201° |
| 2026-05-04 19:51 | 60.20545 | 11.08557 | 672 ft | 78 kts | 200° |
| 2026-05-04 19:51 | 60.20001 | 11.08252 | 708 ft | 90 kts | 200° |
| 2026-05-04 19:51 | 60.19368 | 11.07892 | 833 ft | 97 kts | 200° |
| 2026-05-04 19:51 | 60.18712 | 11.07526 | 950 ft | 101 kts | 203° |
| 2026-05-04 19:52 | 60.18248 | 11.06739 | 1107 ft | 95 kts | 274° |
| 2026-05-04 19:52 | 60.18573 | 11.05556 | 1157 ft | 109 kts | 318° |
| 2026-05-04 19:52 | 60.19345 | 11.05348 | 1252 ft | 117 kts | 2° |
| 2026-05-04 19:52 | 60.20166 | 11.05628 | 1303 ft | 120 kts | 1° |
| 2026-05-04 19:53 | 60.20974 | 11.05983 | 1356 ft | 121 kts | 8° |
| 2026-05-04 19:53 | 60.21774 | 11.06539 | 1417 ft | 123 kts | 13° |
| 2026-05-04 19:53 | 60.22558 | 11.07057 | 1422 ft | 114 kts | 10° |
| 2026-05-04 19:53 | 60.23319 | 11.07583 | 1272 ft | 114 kts | 16° |
| 2026-05-04 19:54 | 60.24040 | 11.07889 | 1231 ft | 100 kts | 343° |
| 2026-05-04 19:54 | 60.24507 | 11.08868 | 1057 ft | 122 kts | 100° |
| 2026-05-04 19:54 | 60.24055 | 11.10188 | 985 ft | 115 kts | 158° |
| 2026-05-04 19:54 | 60.23341 | 11.10123 | 928 ft | 84 kts | 193° |
| 2026-05-04 19:55 | 60.22764 | 11.09849 | 822 ft | 88 kts | 200° |
| 2026-05-04 19:55 | 60.22164 | 11.09497 | 791 ft | 85 kts | 201° |
| 2026-05-04 19:55 | 60.21624 | 11.09189 | 724 ft | 84 kts | 201° |
| 2026-05-04 19:55 | 60.21070 | 11.08862 | 675 ft | 75 kts | 204° |
| 2026-05-04 19:56 | 60.20642 | 11.08607 | 673 ft | 53 kts | 194° |
| 2026-05-04 19:56 | 60.20218 | 11.08378 | 677 ft | 81 kts | 200° |
| 2026-05-04 19:56 | 60.19641 | 11.08033 | 809 ft | 91 kts | 200° |
| 2026-05-04 19:56 | 60.19006 | 11.07674 | 971 ft | 92 kts | 200° |
| 2026-05-04 19:57 | 60.18422 | 11.07153 | 1153 ft | 95 kts | 222° |
| 2026-05-04 19:57 | 60.18086 | 11.05970 | 1255 ft | 102 kts | 262° |
| 2026-05-04 19:57 | 60.18344 | 11.04648 | 1261 ft | 112 kts | 315° |
| 2026-05-04 19:57 | 60.18916 | 11.03626 | 1392 ft | 109 kts | 312° |
| 2026-05-04 19:58 | 60.19441 | 11.02533 | 1501 ft | 111 kts | 308° |
| 2026-05-04 19:58 | 60.19990 | 11.01373 | 1495 ft | 118 kts | 309° |
| 2026-05-04 19:58 | 60.20563 | 11.00178 | 1498 ft | 120 kts | 310° |
| 2026-05-04 19:58 | 60.21157 | 10.98980 | 1503 ft | 122 kts | 309° |
| 2026-05-04 19:59 | 60.21767 | 10.97759 | 1501 ft | 124 kts | 309° |
| 2026-05-04 19:59 | 60.22524 | 10.96938 | 1490 ft | 131 kts | 344° |
| 2026-05-04 19:59 | 60.23423 | 10.97277 | 1490 ft | 138 kts | 29° |
| 2026-05-04 19:59 | 60.24193 | 10.98369 | 1508 ft | 135 kts | 24° |
| 2026-05-04 20:00 | 60.25017 | 10.99310 | 1577 ft | 135 kts | 24° |
| 2026-05-04 20:00 | 60.25808 | 11.00260 | 1708 ft | 130 kts | 21° |
| 2026-05-04 20:00 | 60.26526 | 11.01358 | 1836 ft | 136 kts | 44° |
| 2026-05-04 20:00 | 60.26873 | 11.03142 | 2007 ft | 137 kts | 84° |
| 2026-05-04 20:01 | 60.26670 | 11.05111 | 1931 ft | 153 kts | 113° |
| 2026-05-04 20:01 | 60.26285 | 11.07084 | 1796 ft | 154 kts | 114° |
| 2026-05-04 20:01 | 60.25890 | 11.09116 | 1687 ft | 153 kts | 115° |
| 2026-05-04 20:01 | 60.25358 | 11.10840 | 1552 ft | 141 kts | 146° |
| 2026-05-04 20:02 | 60.24496 | 11.10934 | 1355 ft | 128 kts | 205° |
| 2026-05-04 20:02 | 60.23647 | 11.10339 | 1118 ft | 130 kts | 201° |
| 2026-05-04 20:02 | 60.22758 | 11.09841 | 919 ft | 133 kts | 198° |
| 2026-05-04 20:02 | 60.21872 | 11.09326 | 774 ft | 132 kts | 199° |
| 2026-05-04 20:03 | 60.21051 | 11.08849 | 678 ft | 107 kts | 199° |
| 2026-05-04 20:03 | 60.20457 | 11.08505 | 672 ft | 74 kts | 199° |
| 2026-05-04 20:03 | 60.19887 | 11.08170 | 688 ft | 98 kts | 196° |
| 2026-05-04 20:03 | 60.19210 | 11.07825 | 812 ft | 103 kts | 192° |
| 2026-05-04 20:04 | 60.18500 | 11.07482 | 932 ft | 105 kts | 195° |
| 2026-05-04 20:04 | 60.17838 | 11.06869 | 1002 ft | 110 kts | 228° |
| 2026-05-04 20:04 | 60.17565 | 11.05476 | 1093 ft | 110 kts | 270° |
| 2026-05-04 20:04 | 60.17877 | 11.04114 | 1210 ft | 112 kts | 314° |
| 2026-05-04 20:05 | 60.18552 | 11.03307 | 1322 ft | 118 kts | 341° |
| 2026-05-04 20:05 | 60.19356 | 11.03515 | 1431 ft | 121 kts | 12° |
| 2026-05-04 20:05 | 60.20141 | 11.04209 | 1530 ft | 127 kts | 16° |
| 2026-05-04 20:05 | 60.20983 | 11.04977 | 1523 ft | 135 kts | 17° |
| 2026-05-04 20:06 | 60.21806 | 11.05732 | 1524 ft | 126 kts | 14° |
| 2026-05-04 20:06 | 60.22597 | 11.06496 | 1517 ft | 124 kts | 18° |
| 2026-05-04 20:06 | 60.23373 | 11.07197 | 1516 ft | 120 kts | 16° |
| 2026-05-04 20:06 | 60.24122 | 11.07880 | 1520 ft | 119 kts | 18° |
| 2026-05-04 20:07 | 60.24881 | 11.08591 | 1521 ft | 122 kts | 18° |
| 2026-05-04 20:07 | 60.25547 | 11.09654 | 1501 ft | 133 kts | 58° |
| 2026-05-04 20:07 | 60.25510 | 11.11541 | 1348 ft | 142 kts | 118° |
| 2026-05-04 20:07 | 60.24839 | 11.11317 | 1124 ft | 135 kts | 224° |
| 2026-05-04 20:08 | 60.23951 | 11.10538 | 977 ft | 146 kts | 197° |
| 2026-05-04 20:08 | 60.22958 | 11.09957 | 841 ft | 149 kts | 200° |
| 2026-05-04 20:08 | 60.22085 | 11.09436 | 789 ft | 111 kts | 199° |
| 2026-05-04 20:08 | 60.21434 | 11.09067 | 689 ft | 84 kts | 200° |
| 2026-05-04 20:09 | 60.20958 | 11.08786 | 674 ft | 60 kts | 195° |
| 2026-05-04 20:09 | 60.20713 | 11.08599 | 673 ft | 26 kts | 229° |
| 2026-05-04 20:09 | 60.20645 | 11.08369 | 672 ft | 20 kts | 249° |
| 2026-05-04 20:09 | 60.20636 | 11.08321 | 672 ft | 0 kts | 251° |
| 2026-05-04 20:10 | 60.20601 | 11.08198 | 672 ft | 15 kts | 246° |
| 2026-05-04 20:11 | 60.20613 | 11.08080 | 670 ft | 2 kts | 1° |
| 2026-05-04 20:11 | 60.20626 | 11.08086 | 670 ft | 0 kts | 13° |